sensor_id;sensor_type;location;lat;lon;timestamp;temperature;humidity
75022;SHT31;63583;49.976;20.182;2023-11-19T00:00:16;1.34;95.80
75022;SHT31;63583;49.976;20.182;2023-11-19T00:03:02;1.31;95.44
75022;SHT31;63583;49.976;20.182;2023-11-19T00:05:28;1.34;95.13
75022;SHT31;63583;49.976;20.182;2023-11-19T00:07:54;1.31;94.86
75022;SHT31;63583;49.976;20.182;2023-11-19T00:10:20;1.28;94.26
75022;SHT31;63583;49.976;20.182;2023-11-19T00:12:48;1.24;94.47
75022;SHT31;63583;49.976;20.182;2023-11-19T00:15:14;1.32;94.99
75022;SHT31;63583;49.976;20.182;2023-11-19T00:17:44;1.34;95.09
75022;SHT31;63583;49.976;20.182;2023-11-19T00:20:11;1.39;95.17
75022;SHT31;63583;49.976;20.182;2023-11-19T00:22:37;1.42;95.01
75022;SHT31;63583;49.976;20.182;2023-11-19T00:25:04;1.46;95.10
75022;SHT31;63583;49.976;20.182;2023-11-19T00:27:31;1.42;94.48
75022;SHT31;63583;49.976;20.182;2023-11-19T00:29:56;1.41;94.50
75022;SHT31;63583;49.976;20.182;2023-11-19T00:32:23;1.42;94.60
75022;SHT31;63583;49.976;20.182;2023-11-19T00:34:48;1.45;94.35
75022;SHT31;63583;49.976;20.182;2023-11-19T00:37:15;1.49;94.69
75022;SHT31;63583;49.976;20.182;2023-11-19T00:39:41;1.51;94.80
75022;SHT31;63583;49.976;20.182;2023-11-19T00:42:07;1.49;94.41
75022;SHT31;63583;49.976;20.182;2023-11-19T00:44:33;1.43;93.69
75022;SHT31;63583;49.976;20.182;2023-11-19T00:46:59;1.45;93.98
75022;SHT31;63583;49.976;20.182;2023-11-19T00:49:28;1.38;93.96
75022;SHT31;63583;49.976;20.182;2023-11-19T00:51:54;1.39;94.75
75022;SHT31;63583;49.976;20.182;2023-11-19T00:54:20;1.43;95.10
75022;SHT31;63583;49.976;20.182;2023-11-19T00:56:46;1.41;94.50
75022;SHT31;63583;49.976;20.182;2023-11-19T00:59:12;1.34;94.26
75022;SHT31;63583;49.976;20.182;2023-11-19T01:01:39;1.41;94.74
75022;SHT31;63583;49.976;20.182;2023-11-19T01:04:05;1.39;94.96
75022;SHT31;63583;49.976;20.182;2023-11-19T01:06:32;1.43;94.90
75022;SHT31;63583;49.976;20.182;2023-11-19T01:08:58;1.53;93.98
75022;SHT31;63583;49.976;20.182;2023-11-19T01:11:25;1.48;94.26
75022;SHT31;63583;49.976;20.182;2023-11-19T01:13:51;1.22;94.68
75022;SHT31;63583;49.976;20.182;2023-11-19T01:16:18;1.22;95.60
75022;SHT31;63583;49.976;20.182;2023-11-19T01:18:46;1.17;95.03
75022;SHT31;63583;49.976;20.182;2023-11-19T01:21:12;1.15;96.10
75022;SHT31;63583;49.976;20.182;2023-11-19T01:23:40;1.14;96.24
75022;SHT31;63583;49.976;20.182;2023-11-19T01:26:09;1.17;96.45
75022;SHT31;63583;49.976;20.182;2023-11-19T01:28:39;1.08;96.30
75022;SHT31;63583;49.976;20.182;2023-11-19T01:31:05;1.09;96.57
75022;SHT31;63583;49.976;20.182;2023-11-19T01:33:35;1.04;96.37
75022;SHT31;63583;49.976;20.182;2023-11-19T01:36:02;1.07;96.48
75022;SHT31;63583;49.976;20.182;2023-11-19T01:38:27;1.20;96.92
75022;SHT31;63583;49.976;20.182;2023-11-19T01:40:57;1.21;96.54
75022;SHT31;63583;49.976;20.182;2023-11-19T01:43:36;1.12;96.15
75022;SHT31;63583;49.976;20.182;2023-11-19T01:46:05;1.18;96.51
75022;SHT31;63583;49.976;20.182;2023-11-19T01:48:34;1.27;96.81
75022;SHT31;63583;49.976;20.182;2023-11-19T01:51:02;1.21;95.85
75022;SHT31;63583;49.976;20.182;2023-11-19T01:53:30;1.24;95.98
75022;SHT31;63583;49.976;20.182;2023-11-19T01:55:56;1.27;96.17
75022;SHT31;63583;49.976;20.182;2023-11-19T01:58:24;1.28;95.87
75022;SHT31;63583;49.976;20.182;2023-11-19T02:00:50;1.31;95.83
75022;SHT31;63583;49.976;20.182;2023-11-19T02:03:16;1.32;95.48
75022;SHT31;63583;49.976;20.182;2023-11-19T02:05:42;1.36;95.76
75022;SHT31;63583;49.976;20.182;2023-11-19T02:08:08;1.39;95.59
75022;SHT31;63583;49.976;20.182;2023-11-19T02:10:34;1.39;95.50
75022;SHT31;63583;49.976;20.182;2023-11-19T02:13:00;1.42;95.66
75022;SHT31;63583;49.976;20.182;2023-11-19T02:15:26;1.39;95.32
75022;SHT31;63583;49.976;20.182;2023-11-19T02:17:52;1.35;95.16
75022;SHT31;63583;49.976;20.182;2023-11-19T02:20:18;1.35;95.64
75022;SHT31;63583;49.976;20.182;2023-11-19T02:22:46;1.36;95.33
75022;SHT31;63583;49.976;20.182;2023-11-19T02:25:32;1.36;95.46
75022;SHT31;63583;49.976;20.182;2023-11-19T02:27:59;1.36;95.37
75022;SHT31;63583;49.976;20.182;2023-11-19T02:30:26;1.32;95.68
75022;SHT31;63583;49.976;20.182;2023-11-19T02:32:53;1.34;95.84
75022;SHT31;63583;49.976;20.182;2023-11-19T02:35:19;1.32;95.70
75022;SHT31;63583;49.976;20.182;2023-11-19T02:37:47;1.31;95.64
75022;SHT31;63583;49.976;20.182;2023-11-19T02:40:13;1.39;96.23
75022;SHT31;63583;49.976;20.182;2023-11-19T02:42:39;1.45;96.22
75022;SHT31;63583;49.976;20.182;2023-11-19T02:45:05;1.28;95.80
75022;SHT31;63583;49.976;20.182;2023-11-19T02:47:33;1.27;96.30
75022;SHT31;63583;49.976;20.182;2023-11-19T02:49:59;1.22;96.34
75022;SHT31;63583;49.976;20.182;2023-11-19T02:52:25;1.21;96.21
75022;SHT31;63583;49.976;20.182;2023-11-19T02:54:51;1.22;96.46
75022;SHT31;63583;49.976;20.182;2023-11-19T02:57:18;1.20;96.46
75022;SHT31;63583;49.976;20.182;2023-11-19T02:59:46;1.09;96.15
75022;SHT31;63583;49.976;20.182;2023-11-19T03:02:13;1.09;96.91
75022;SHT31;63583;49.976;20.182;2023-11-19T03:04:41;1.00;97.27
75022;SHT31;63583;49.976;20.182;2023-11-19T03:07:09;1.04;97.54
75022;SHT31;63583;49.976;20.182;2023-11-19T03:09:35;1.08;97.62
75022;SHT31;63583;49.976;20.182;2023-11-19T03:12:01;1.05;97.18
75022;SHT31;63583;49.976;20.182;2023-11-19T03:14:27;1.14;97.66
75022;SHT31;63583;49.976;20.182;2023-11-19T03:16:53;1.24;97.16
75022;SHT31;63583;49.976;20.182;2023-11-19T03:19:19;1.15;96.89
75022;SHT31;63583;49.976;20.182;2023-11-19T03:21:45;1.17;96.94
75022;SHT31;63583;49.976;20.182;2023-11-19T03:24:14;1.07;96.72
75022;SHT31;63583;49.976;20.182;2023-11-19T03:26:40;1.04;96.96
75022;SHT31;63583;49.976;20.182;2023-11-19T03:29:08;1.04;97.06
75022;SHT31;63583;49.976;20.182;2023-11-19T03:31:34;1.14;97.21
75022;SHT31;63583;49.976;20.182;2023-11-19T03:34:00;1.15;97.26
75022;SHT31;63583;49.976;20.182;2023-11-19T03:36:31;1.11;96.96
75022;SHT31;63583;49.976;20.182;2023-11-19T03:38:58;1.07;97.17
75022;SHT31;63583;49.976;20.182;2023-11-19T03:41:24;1.01;97.16
75022;SHT31;63583;49.976;20.182;2023-11-19T03:43:50;1.08;97.38
75022;SHT31;63583;49.976;20.182;2023-11-19T03:46:17;1.11;97.26
75022;SHT31;63583;49.976;20.182;2023-11-19T03:48:43;1.09;97.02
75022;SHT31;63583;49.976;20.182;2023-11-19T03:51:09;1.14;97.03
75022;SHT31;63583;49.976;20.182;2023-11-19T03:53:35;1.09;96.84
75022;SHT31;63583;49.976;20.182;2023-11-19T03:56:01;1.11;96.84
75022;SHT31;63583;49.976;20.182;2023-11-19T03:58:27;1.12;96.85
75022;SHT31;63583;49.976;20.182;2023-11-19T04:00:52;1.17;96.32
75022;SHT31;63583;49.976;20.182;2023-11-19T04:03:18;1.09;96.16
75022;SHT31;63583;49.976;20.182;2023-11-19T04:05:45;1.03;96.88
75022;SHT31;63583;49.976;20.182;2023-11-19T04:08:11;1.04;97.32
75022;SHT31;63583;49.976;20.182;2023-11-19T04:10:36;1.20;97.25
75022;SHT31;63583;49.976;20.182;2023-11-19T04:13:02;1.05;97.01
75022;SHT31;63583;49.976;20.182;2023-11-19T04:15:28;0.94;97.45
75022;SHT31;63583;49.976;20.182;2023-11-19T04:17:54;1.01;97.37
75022;SHT31;63583;49.976;20.182;2023-11-19T04:20:20;1.04;97.29
75022;SHT31;63583;49.976;20.182;2023-11-19T04:22:46;0.94;97.76
75022;SHT31;63583;49.976;20.182;2023-11-19T04:25:12;0.94;97.94
75022;SHT31;63583;49.976;20.182;2023-11-19T04:27:38;1.00;97.90
75022;SHT31;63583;49.976;20.182;2023-11-19T04:30:04;0.83;97.95
75022;SHT31;63583;49.976;20.182;2023-11-19T04:32:31;0.84;97.72
75022;SHT31;63583;49.976;20.182;2023-11-19T04:34:56;0.83;98.34
75022;SHT31;63583;49.976;20.182;2023-11-19T04:37:22;0.90;97.90
75022;SHT31;63583;49.976;20.182;2023-11-19T04:39:48;0.84;98.03
75022;SHT31;63583;49.976;20.182;2023-11-19T04:42:14;0.79;98.16
75022;SHT31;63583;49.976;20.182;2023-11-19T04:44:43;0.88;98.39
75022;SHT31;63583;49.976;20.182;2023-11-19T04:47:09;0.87;98.14
75022;SHT31;63583;49.976;20.182;2023-11-19T04:49:40;0.83;98.31
75022;SHT31;63583;49.976;20.182;2023-11-19T04:52:08;0.87;98.23
75022;SHT31;63583;49.976;20.182;2023-11-19T04:54:34;0.81;98.08
75022;SHT31;63583;49.976;20.182;2023-11-19T04:57:00;0.85;98.07
75022;SHT31;63583;49.976;20.182;2023-11-19T04:59:26;0.85;97.81
75022;SHT31;63583;49.976;20.182;2023-11-19T05:01:53;0.88;97.71
75022;SHT31;63583;49.976;20.182;2023-11-19T05:04:18;0.97;97.98
75022;SHT31;63583;49.976;20.182;2023-11-19T05:06:44;0.87;97.35
75022;SHT31;63583;49.976;20.182;2023-11-19T05:09:10;0.91;97.58
75022;SHT31;63583;49.976;20.182;2023-11-19T05:11:38;0.88;97.38
75022;SHT31;63583;49.976;20.182;2023-11-19T05:14:05;0.87;96.98
75022;SHT31;63583;49.976;20.182;2023-11-19T05:16:31;0.87;97.27
75022;SHT31;63583;49.976;20.182;2023-11-19T05:18:57;0.84;97.47
75022;SHT31;63583;49.976;20.182;2023-11-19T05:21:23;0.93;97.53
75022;SHT31;63583;49.976;20.182;2023-11-19T05:23:49;1.05;97.22
75022;SHT31;63583;49.976;20.182;2023-11-19T05:26:20;1.07;97.11
75022;SHT31;63583;49.976;20.182;2023-11-19T05:28:46;1.12;97.18
75022;SHT31;63583;49.976;20.182;2023-11-19T05:31:12;1.11;96.63
75022;SHT31;63583;49.976;20.182;2023-11-19T05:33:37;1.12;96.80
75022;SHT31;63583;49.976;20.182;2023-11-19T05:36:04;1.15;97.12
75022;SHT31;63583;49.976;20.182;2023-11-19T05:38:30;1.22;96.74
75022;SHT31;63583;49.976;20.182;2023-11-19T05:40:56;1.20;96.64
75022;SHT31;63583;49.976;20.182;2023-11-19T05:43:22;1.20;96.63
75022;SHT31;63583;49.976;20.182;2023-11-19T05:45:48;1.22;96.58
75022;SHT31;63583;49.976;20.182;2023-11-19T05:48:14;1.21;96.36
75022;SHT31;63583;49.976;20.182;2023-11-19T05:50:39;1.18;96.43
75022;SHT31;63583;49.976;20.182;2023-11-19T05:53:05;1.22;96.67
75022;SHT31;63583;49.976;20.182;2023-11-19T05:55:36;1.28;96.72
75022;SHT31;63583;49.976;20.182;2023-11-19T05:58:03;1.31;96.79
75022;SHT31;63583;49.976;20.182;2023-11-19T06:00:29;1.24;96.15
75022;SHT31;63583;49.976;20.182;2023-11-19T06:02:56;1.22;96.45
75022;SHT31;63583;49.976;20.182;2023-11-19T06:05:22;1.14;96.41
75022;SHT31;63583;49.976;20.182;2023-11-19T06:07:47;1.01;96.51
75022;SHT31;63583;49.976;20.182;2023-11-19T06:10:13;1.24;96.22
75022;SHT31;63583;49.976;20.182;2023-11-19T06:12:42;1.15;95.83
75022;SHT31;63583;49.976;20.182;2023-11-19T06:15:08;1.15;96.75
75022;SHT31;63583;49.976;20.182;2023-11-19T06:17:34;1.34;95.84
75022;SHT31;63583;49.976;20.182;2023-11-19T06:20:00;1.25;95.59
75022;SHT31;63583;49.976;20.182;2023-11-19T06:22:26;1.27;96.26
75022;SHT31;63583;49.976;20.182;2023-11-19T06:24:52;1.38;95.79
75022;SHT31;63583;49.976;20.182;2023-11-19T06:27:17;1.34;95.67
75022;SHT31;63583;49.976;20.182;2023-11-19T06:29:43;1.21;95.84
75022;SHT31;63583;49.976;20.182;2023-11-19T06:32:09;1.09;95.22
75022;SHT31;63583;49.976;20.182;2023-11-19T06:34:35;1.18;93.75
75022;SHT31;63583;49.976;20.182;2023-11-19T06:37:01;1.21;93.97
75022;SHT31;63583;49.976;20.182;2023-11-19T06:39:30;1.21;94.14
75022;SHT31;63583;49.976;20.182;2023-11-19T06:41:55;1.11;93.01
75022;SHT31;63583;49.976;20.182;2023-11-19T06:44:22;1.17;92.95
75022;SHT31;63583;49.976;20.182;2023-11-19T06:46:48;1.18;92.57
75022;SHT31;63583;49.976;20.182;2023-11-19T06:49:14;1.22;92.09
75022;SHT31;63583;49.976;20.182;2023-11-19T06:51:42;1.20;92.17
75022;SHT31;63583;49.976;20.182;2023-11-19T06:54:09;1.22;92.45
75022;SHT31;63583;49.976;20.182;2023-11-19T06:56:35;1.27;91.72
75022;SHT31;63583;49.976;20.182;2023-11-19T06:59:01;1.32;91.84
75022;SHT31;63583;49.976;20.182;2023-11-19T07:01:27;1.35;92.48
75022;SHT31;63583;49.976;20.182;2023-11-19T07:03:53;1.35;91.24
75022;SHT31;63583;49.976;20.182;2023-11-19T07:06:18;1.42;90.80
75022;SHT31;63583;49.976;20.182;2023-11-19T07:08:44;1.45;90.45
75022;SHT31;63583;49.976;20.182;2023-11-19T07:11:11;1.49;90.13
75022;SHT31;63583;49.976;20.182;2023-11-19T07:13:37;1.52;88.81
75022;SHT31;63583;49.976;20.182;2023-11-19T07:16:03;1.58;89.17
75022;SHT31;63583;49.976;20.182;2023-11-19T07:18:29;1.59;88.98
75022;SHT31;63583;49.976;20.182;2023-11-19T07:20:55;1.51;88.96
75022;SHT31;63583;49.976;20.182;2023-11-19T07:23:21;1.53;88.52
75022;SHT31;63583;49.976;20.182;2023-11-19T07:25:47;1.51;89.86
75022;SHT31;63583;49.976;20.182;2023-11-19T07:28:13;1.46;88.68
75022;SHT31;63583;49.976;20.182;2023-11-19T07:30:40;1.58;88.65
75022;SHT31;63583;49.976;20.182;2023-11-19T07:33:05;1.64;88.22
75022;SHT31;63583;49.976;20.182;2023-11-19T07:35:32;1.62;88.81
75022;SHT31;63583;49.976;20.182;2023-11-19T07:37:58;1.69;88.79
75022;SHT31;63583;49.976;20.182;2023-11-19T07:40:24;1.62;89.64
75022;SHT31;63583;49.976;20.182;2023-11-19T07:42:50;1.63;89.83
75022;SHT31;63583;49.976;20.182;2023-11-19T07:45:16;1.70;89.32
75022;SHT31;63583;49.976;20.182;2023-11-19T07:47:43;1.67;88.63
75022;SHT31;63583;49.976;20.182;2023-11-19T07:50:12;1.76;88.28
75022;SHT31;63583;49.976;20.182;2023-11-19T07:52:39;1.76;88.56
75022;SHT31;63583;49.976;20.182;2023-11-19T07:55:05;1.89;88.68
75022;SHT31;63583;49.976;20.182;2023-11-19T07:57:31;1.89;88.29
75022;SHT31;63583;49.976;20.182;2023-11-19T07:59:57;1.89;88.60
75022;SHT31;63583;49.976;20.182;2023-11-19T08:02:23;1.89;87.93
75022;SHT31;63583;49.976;20.182;2023-11-19T08:04:49;2.15;87.86
75022;SHT31;63583;49.976;20.182;2023-11-19T08:07:18;2.14;87.71
75022;SHT31;63583;49.976;20.182;2023-11-19T08:09:45;2.24;87.92
75022;SHT31;63583;49.976;20.182;2023-11-19T08:12:11;2.29;87.67
75022;SHT31;63583;49.976;20.182;2023-11-19T08:14:36;2.29;86.67
75022;SHT31;63583;49.976;20.182;2023-11-19T08:17:05;2.39;87.03
75022;SHT31;63583;49.976;20.182;2023-11-19T08:19:31;2.32;86.59
75022;SHT31;63583;49.976;20.182;2023-11-19T08:21:57;2.34;86.19
75022;SHT31;63583;49.976;20.182;2023-11-19T08:24:22;2.44;86.09
75022;SHT31;63583;49.976;20.182;2023-11-19T08:26:48;2.48;86.58
75022;SHT31;63583;49.976;20.182;2023-11-19T08:29:14;2.66;86.54
75022;SHT31;63583;49.976;20.182;2023-11-19T08:31:40;2.83;85.07
75022;SHT31;63583;49.976;20.182;2023-11-19T08:34:06;2.79;85.47
75022;SHT31;63583;49.976;20.182;2023-11-19T08:36:34;2.92;84.75
75022;SHT31;63583;49.976;20.182;2023-11-19T08:39:00;2.69;85.23
75022;SHT31;63583;49.976;20.182;2023-11-19T08:41:27;2.79;85.28
75022;SHT31;63583;49.976;20.182;2023-11-19T08:43:52;2.89;85.52
75022;SHT31;63583;49.976;20.182;2023-11-19T08:46:19;3.01;84.32
75022;SHT31;63583;49.976;20.182;2023-11-19T08:48:44;2.97;84.65
75022;SHT31;63583;49.976;20.182;2023-11-19T08:51:13;3.04;83.67
75022;SHT31;63583;49.976;20.182;2023-11-19T08:53:39;2.93;85.08
75022;SHT31;63583;49.976;20.182;2023-11-19T08:56:05;2.94;85.31
75022;SHT31;63583;49.976;20.182;2023-11-19T08:58:32;3.06;85.59
75022;SHT31;63583;49.976;20.182;2023-11-19T09:00:58;2.82;85.29
75022;SHT31;63583;49.976;20.182;2023-11-19T09:03:24;2.77;85.34
75022;SHT31;63583;49.976;20.182;2023-11-19T09:05:53;3.01;84.72
75022;SHT31;63583;49.976;20.182;2023-11-19T09:08:19;2.99;85.02
75022;SHT31;63583;49.976;20.182;2023-11-19T09:10:45;3.00;84.87
75022;SHT31;63583;49.976;20.182;2023-11-19T09:13:11;3.00;84.37
75022;SHT31;63583;49.976;20.182;2023-11-19T09:15:37;3.07;84.25
75022;SHT31;63583;49.976;20.182;2023-11-19T09:18:03;3.01;85.42
75022;SHT31;63583;49.976;20.182;2023-11-19T09:20:30;3.14;85.44
75022;SHT31;63583;49.976;20.182;2023-11-19T09:23:03;3.04;83.94
75022;SHT31;63583;49.976;20.182;2023-11-19T09:25:29;2.96;84.66
75022;SHT31;63583;49.976;20.182;2023-11-19T09:27:54;2.97;84.69
75022;SHT31;63583;49.976;20.182;2023-11-19T09:30:20;2.96;83.77
75022;SHT31;63583;49.976;20.182;2023-11-19T09:32:46;2.93;84.81
75022;SHT31;63583;49.976;20.182;2023-11-19T09:35:12;2.93;83.86
75022;SHT31;63583;49.976;20.182;2023-11-19T09:37:40;2.89;84.99
75022;SHT31;63583;49.976;20.182;2023-11-19T09:40:07;3.07;85.06
75022;SHT31;63583;49.976;20.182;2023-11-19T09:42:43;2.97;85.26
75022;SHT31;63583;49.976;20.182;2023-11-19T09:45:14;3.21;84.80
75022;SHT31;63583;49.976;20.182;2023-11-19T09:47:43;3.34;84.25
75022;SHT31;63583;49.976;20.182;2023-11-19T09:50:15;3.35;84.10
75022;SHT31;63583;49.976;20.182;2023-11-19T09:52:42;3.36;83.85
75022;SHT31;63583;49.976;20.182;2023-11-19T09:55:08;3.44;84.21
75022;SHT31;63583;49.976;20.182;2023-11-19T09:57:35;3.34;85.14
75022;SHT31;63583;49.976;20.182;2023-11-19T10:00:03;3.46;83.86
75022;SHT31;63583;49.976;20.182;2023-11-19T10:02:33;3.68;83.03
75022;SHT31;63583;49.976;20.182;2023-11-19T10:05:06;3.73;82.86
75022;SHT31;63583;49.976;20.182;2023-11-19T10:07:33;3.80;82.75
75022;SHT31;63583;49.976;20.182;2023-11-19T10:10:02;3.75;82.87
75022;SHT31;63583;49.976;20.182;2023-11-19T10:12:31;3.65;82.65
75022;SHT31;63583;49.976;20.182;2023-11-19T10:14:57;3.73;82.44
75022;SHT31;63583;49.976;20.182;2023-11-19T10:17:41;3.68;84.10
75022;SHT31;63583;49.976;20.182;2023-11-19T10:20:08;3.78;82.69
75022;SHT31;63583;49.976;20.182;2023-11-19T10:22:39;3.86;82.22
75022;SHT31;63583;49.976;20.182;2023-11-19T10:25:21;3.96;82.25
75022;SHT31;63583;49.976;20.182;2023-11-19T10:27:48;4.10;82.67
75022;SHT31;63583;49.976;20.182;2023-11-19T10:30:20;4.13;82.94
75022;SHT31;63583;49.976;20.182;2023-11-19T10:33:12;3.89;82.26
75022;SHT31;63583;49.976;20.182;2023-11-19T10:35:54;4.09;82.34
75022;SHT31;63583;49.976;20.182;2023-11-19T10:38:22;4.04;82.18
75022;SHT31;63583;49.976;20.182;2023-11-19T10:40:49;4.25;81.40
75022;SHT31;63583;49.976;20.182;2023-11-19T10:43:17;4.20;82.26
75022;SHT31;63583;49.976;20.182;2023-11-19T10:45:43;4.14;82.27
75022;SHT31;63583;49.976;20.182;2023-11-19T10:48:09;4.27;80.61
75022;SHT31;63583;49.976;20.182;2023-11-19T10:50:37;4.25;81.48
75022;SHT31;63583;49.976;20.182;2023-11-19T10:53:04;4.21;81.63
75022;SHT31;63583;49.976;20.182;2023-11-19T10:55:32;4.09;82.20
75022;SHT31;63583;49.976;20.182;2023-11-19T10:58:13;4.11;82.52
75022;SHT31;63583;49.976;20.182;2023-11-19T11:00:57;4.22;82.37
75022;SHT31;63583;49.976;20.182;2023-11-19T11:03:25;4.20;82.70
75022;SHT31;63583;49.976;20.182;2023-11-19T11:05:56;4.06;82.52
75022;SHT31;63583;49.976;20.182;2023-11-19T11:08:22;4.07;82.06
75022;SHT31;63583;49.976;20.182;2023-11-19T11:10:52;3.96;83.34
75022;SHT31;63583;49.976;20.182;2023-11-19T11:13:18;4.06;82.64
75022;SHT31;63583;49.976;20.182;2023-11-19T11:15:45;4.16;82.27
75022;SHT31;63583;49.976;20.182;2023-11-19T11:18:12;4.31;81.99
75022;SHT31;63583;49.976;20.182;2023-11-19T11:20:39;4.31;82.20
75022;SHT31;63583;49.976;20.182;2023-11-19T11:23:47;4.36;81.82
75022;SHT31;63583;49.976;20.182;2023-11-19T11:32:37;4.40;82.15
75022;SHT31;63583;49.976;20.182;2023-11-19T11:38:11;4.54;81.10
75022;SHT31;63583;49.976;20.182;2023-11-19T11:40:37;4.65;80.73
75022;SHT31;63583;49.976;20.182;2023-11-19T11:43:03;4.65;79.23
75022;SHT31;63583;49.976;20.182;2023-11-19T11:45:38;4.62;80.20
75022;SHT31;63583;49.976;20.182;2023-11-19T11:48:09;4.47;80.77
75022;SHT31;63583;49.976;20.182;2023-11-19T11:50:50;4.36;81.32
75022;SHT31;63583;49.976;20.182;2023-11-19T11:53:17;4.37;80.53
75022;SHT31;63583;49.976;20.182;2023-11-19T11:58:25;4.18;80.61
75022;SHT31;63583;49.976;20.182;2023-11-19T12:00:51;4.09;81.57
75022;SHT31;63583;49.976;20.182;2023-11-19T12:03:20;4.18;82.10
75022;SHT31;63583;49.976;20.182;2023-11-19T12:05:47;4.28;81.71
75022;SHT31;63583;49.976;20.182;2023-11-19T12:08:15;4.27;82.25
75022;SHT31;63583;49.976;20.182;2023-11-19T12:10:56;4.37;82.59
75022;SHT31;63583;49.976;20.182;2023-11-19T12:13:44;4.37;82.40
75022;SHT31;63583;49.976;20.182;2023-11-19T12:16:11;4.37;82.87
75022;SHT31;63583;49.976;20.182;2023-11-19T12:18:39;4.48;83.17
75022;SHT31;63583;49.976;20.182;2023-11-19T12:21:05;4.40;81.51
75022;SHT31;63583;49.976;20.182;2023-11-19T12:23:32;4.33;82.63
75022;SHT31;63583;49.976;20.182;2023-11-19T12:25:58;4.51;81.91
75022;SHT31;63583;49.976;20.182;2023-11-19T12:28:24;4.47;82.09
75022;SHT31;63583;49.976;20.182;2023-11-19T12:30:52;4.42;82.78
75022;SHT31;63583;49.976;20.182;2023-11-19T12:33:21;4.27;82.77
75022;SHT31;63583;49.976;20.182;2023-11-19T12:35:48;4.16;84.08
75022;SHT31;63583;49.976;20.182;2023-11-19T12:38:20;3.99;84.86
75022;SHT31;63583;49.976;20.182;2023-11-19T12:40:46;3.92;86.06
75022;SHT31;63583;49.976;20.182;2023-11-19T12:43:21;3.99;86.30
75022;SHT31;63583;49.976;20.182;2023-11-19T12:45:50;3.96;86.21
75022;SHT31;63583;49.976;20.182;2023-11-19T12:48:16;4.03;86.49
75022;SHT31;63583;49.976;20.182;2023-11-19T12:53:21;3.85;87.62
75022;SHT31;63583;49.976;20.182;2023-11-19T12:55:47;3.82;88.02
75022;SHT31;63583;49.976;20.182;2023-11-19T12:58:35;3.66;88.72
75022;SHT31;63583;49.976;20.182;2023-11-19T13:01:05;3.45;89.99
75022;SHT31;63583;49.976;20.182;2023-11-19T13:03:36;3.31;89.70
75022;SHT31;63583;49.976;20.182;2023-11-19T13:06:05;3.36;89.52
75022;SHT31;63583;49.976;20.182;2023-11-19T13:08:44;3.27;90.28
75022;SHT31;63583;49.976;20.182;2023-11-19T13:11:11;3.14;90.81
75022;SHT31;63583;49.976;20.182;2023-11-19T13:13:56;3.15;90.93
75022;SHT31;63583;49.976;20.182;2023-11-19T13:16:23;3.18;91.07
75022;SHT31;63583;49.976;20.182;2023-11-19T13:18:49;3.17;91.72
75022;SHT31;63583;49.976;20.182;2023-11-19T13:21:17;3.07;91.18
75022;SHT31;63583;49.976;20.182;2023-11-19T13:23:44;3.11;91.36
75022;SHT31;63583;49.976;20.182;2023-11-19T13:26:10;3.14;91.30
75022;SHT31;63583;49.976;20.182;2023-11-19T13:28:37;3.08;91.52
75022;SHT31;63583;49.976;20.182;2023-11-19T13:31:03;3.10;91.67
75022;SHT31;63583;49.976;20.182;2023-11-19T13:33:29;2.97;92.53
75022;SHT31;63583;49.976;20.182;2023-11-19T13:35:56;2.99;92.89
75022;SHT31;63583;49.976;20.182;2023-11-19T13:38:22;2.92;93.11
75022;SHT31;63583;49.976;20.182;2023-11-19T13:40:50;2.93;92.97
75022;SHT31;63583;49.976;20.182;2023-11-19T13:43:17;2.92;93.27
75022;SHT31;63583;49.976;20.182;2023-11-19T13:45:42;3.01;93.03
75022;SHT31;63583;49.976;20.182;2023-11-19T13:48:08;3.00;93.52
75022;SHT31;63583;49.976;20.182;2023-11-19T13:50:36;3.04;93.30
75022;SHT31;63583;49.976;20.182;2023-11-19T13:53:02;2.87;94.08
75022;SHT31;63583;49.976;20.182;2023-11-19T13:55:29;2.65;95.01
75022;SHT31;63583;49.976;20.182;2023-11-19T13:57:56;2.71;95.69
75022;SHT31;63583;49.976;20.182;2023-11-19T14:00:21;2.75;95.33
75022;SHT31;63583;49.976;20.182;2023-11-19T14:02:49;2.69;95.37
75022;SHT31;63583;49.976;20.182;2023-11-19T14:05:16;2.69;95.53
75022;SHT31;63583;49.976;20.182;2023-11-19T14:07:45;2.65;95.77
75022;SHT31;63583;49.976;20.182;2023-11-19T14:10:15;2.58;95.95
75022;SHT31;63583;49.976;20.182;2023-11-19T14:12:41;2.53;96.28
75022;SHT31;63583;49.976;20.182;2023-11-19T14:15:08;2.56;96.30
75022;SHT31;63583;49.976;20.182;2023-11-19T14:17:38;2.49;96.76
75022;SHT31;63583;49.976;20.182;2023-11-19T14:20:06;2.58;96.87
75022;SHT31;63583;49.976;20.182;2023-11-19T14:22:39;2.55;96.66
75022;SHT31;63583;49.976;20.182;2023-11-19T14:25:06;2.53;96.53
75022;SHT31;63583;49.976;20.182;2023-11-19T14:27:39;2.52;96.95
75022;SHT31;63583;49.976;20.182;2023-11-19T14:30:07;2.52;96.93
75022;SHT31;63583;49.976;20.182;2023-11-19T14:32:38;2.56;96.92
75022;SHT31;63583;49.976;20.182;2023-11-19T14:35:06;2.60;96.80
75022;SHT31;63583;49.976;20.182;2023-11-19T14:37:33;2.63;96.72
75022;SHT31;63583;49.976;20.182;2023-11-19T14:39:59;2.69;97.03
75022;SHT31;63583;49.976;20.182;2023-11-19T14:42:26;2.67;96.79
75022;SHT31;63583;49.976;20.182;2023-11-19T14:44:53;2.69;97.06
75022;SHT31;63583;49.976;20.182;2023-11-19T14:47:19;2.76;96.90
75022;SHT31;63583;49.976;20.182;2023-11-19T14:49:45;2.83;96.77
75022;SHT31;63583;49.976;20.182;2023-11-19T14:52:11;2.85;96.45
75022;SHT31;63583;49.976;20.182;2023-11-19T14:54:37;2.75;96.60
75022;SHT31;63583;49.976;20.182;2023-11-19T14:57:07;2.83;97.04
75022;SHT31;63583;49.976;20.182;2023-11-19T14:59:36;2.86;96.89
75022;SHT31;63583;49.976;20.182;2023-11-19T15:02:03;2.89;96.81
75022;SHT31;63583;49.976;20.182;2023-11-19T15:04:29;2.94;96.89
75022;SHT31;63583;49.976;20.182;2023-11-19T15:06:59;2.96;96.96
75022;SHT31;63583;49.976;20.182;2023-11-19T15:09:24;3.00;97.03
75022;SHT31;63583;49.976;20.182;2023-11-19T15:11:53;2.93;96.75
75022;SHT31;63583;49.976;20.182;2023-11-19T15:14:19;2.92;96.74
75022;SHT31;63583;49.976;20.182;2023-11-19T15:16:47;2.99;97.05
75022;SHT31;63583;49.976;20.182;2023-11-19T15:19:13;3.00;96.76
75022;SHT31;63583;49.976;20.182;2023-11-19T15:21:41;2.94;96.71
75022;SHT31;63583;49.976;20.182;2023-11-19T15:24:08;3.00;96.87
75022;SHT31;63583;49.976;20.182;2023-11-19T15:26:34;2.97;96.73
75022;SHT31;63583;49.976;20.182;2023-11-19T15:29:03;2.90;96.78
75022;SHT31;63583;49.976;20.182;2023-11-19T15:31:29;2.94;96.76
75022;SHT31;63583;49.976;20.182;2023-11-19T15:33:56;2.94;97.05
75022;SHT31;63583;49.976;20.182;2023-11-19T15:36:22;3.04;96.69
75022;SHT31;63583;49.976;20.182;2023-11-19T15:38:48;3.01;96.73
75022;SHT31;63583;49.976;20.182;2023-11-19T15:41:14;3.06;96.74
75022;SHT31;63583;49.976;20.182;2023-11-19T15:43:40;3.13;96.80
75022;SHT31;63583;49.976;20.182;2023-11-19T15:46:07;3.10;96.48